Time;durP1;ratioP1;P1;durP2;ratioP2;P2;SDS_P1;SDS_P2;PMS_P1;PMS_P2;Temp;Humidity;BMP_temperature;BMP_pressure;BME280_temperature;BME280_humidity;BME280_pressure;Samples;Min_cycle;Max_cycle;Signal;HPM_P1;HPM_P2
2021/01/28 00:02:16;;;;;;;28.45;14.77;;;8.80;89.50;;;;;;4917144;29;20028;-76
2021/01/28 00:04:42;;;;;;;34.08;14.68;;;8.80;89.50;;;;;;4917111;29;20043;-75
2021/01/28 00:07:07;;;;;;;28.00;14.60;;;8.80;89.50;;;;;;4917165;29;20028;-76
2021/01/28 00:09:33;;;;;;;30.02;14.65;;;8.80;89.40;;;;;;4917123;29;20055;-76
2021/01/28 00:11:59;;;;;;;30.65;14.93;;;8.80;89.40;;;;;;4900067;29;20127;-76
2021/01/28 00:14:24;;;;;;;33.17;14.98;;;8.80;89.40;;;;;;4899812;29;20497;-76
2021/01/28 00:16:50;;;;;;;26.13;14.23;;;8.80;89.40;;;;;;4916903;29;20032;-76
2021/01/28 00:19:16;;;;;;;27.30;12.68;;;8.80;89.40;;;;;;4915509;29;20059;-76
2021/01/28 00:21:41;;;;;;;28.67;13.88;;;8.80;89.40;;;;;;4916938;29;20028;-76
2021/01/28 00:24:07;;;;;;;29.95;13.07;;;8.80;89.40;;;;;;4916918;29;20075;-76
2021/01/28 00:26:33;;;;;;;27.27;13.45;;;8.90;89.40;;;;;;4916659;29;20457;-74
2021/01/28 00:28:58;;;;;;;27.13;13.85;;;8.90;89.30;;;;;;4916470;29;20032;-76
2021/01/28 00:31:24;;;;;;;26.20;14.05;;;8.90;89.30;;;;;;4915001;29;20441;-73
2021/01/28 00:33:50;;;;;;;27.63;13.80;;;8.90;89.20;;;;;;4916511;29;20488;-76
2021/01/28 00:36:15;;;;;;;29.83;13.70;;;8.90;89.20;;;;;;4916256;29;20040;-75
2021/01/28 00:38:41;;;;;;;29.35;14.05;;;8.90;89.10;;;;;;4916414;29;20039;-74
2021/01/28 00:41:10;;;;;;;30.83;14.35;;;9.00;89.10;;;;;;4916458;29;20051;-77
2021/01/28 00:43:35;;;;;;;32.47;15.20;;;8.90;89.10;;;;;;4899266;29;20038;-76
2021/01/28 00:46:03;;;;;;;32.13;14.50;;;9.00;89.10;;;;;;4916590;29;20168;-74
2021/01/28 00:48:29;;;;;;;34.42;15.55;;;8.90;89.00;;;;;;4916230;29;20107;-76
2021/01/28 00:50:56;;;;;;;30.88;14.60;;;9.00;89.10;;;;;;4899094;29;20039;-76
2021/01/28 00:53:23;;;;;;;27.15;13.95;;;8.90;88.90;;;;;;4916380;29;20032;-75
2021/01/28 00:55:48;;;;;;;33.03;14.13;;;8.90;88.90;;;;;;4916684;29;20103;-76
2021/01/28 00:58:16;;;;;;;36.33;15.30;;;8.90;88.90;;;;;;4899661;29;20020;-75
2021/01/28 01:00:44;;;;;;;37.72;15.05;;;9.00;89.50;;;;;;4899694;29;20055;-76
2021/01/28 01:03:13;;;;;;;33.95;14.57;;;9.00;88.90;;;;;;4916786;29;20480;-75
2021/01/28 01:05:39;;;;;;;29.33;14.05;;;9.00;88.90;;;;;;4916560;29;20123;-76
2021/01/28 01:08:27;;;;;;;35.38;14.68;;;9.00;88.90;;;;;;4916713;29;20036;-76
2021/01/28 01:11:02;;;;;;;30.63;13.98;;;9.00;88.90;;;;;;4899208;29;20036;-76
2021/01/28 01:13:30;;;;;;;29.83;13.48;;;9.00;88.90;;;;;;4916498;29;20083;-75
2021/01/28 01:15:56;;;;;;;35.33;14.73;;;9.00;88.90;;;;;;4916511;29;20115;-75
2021/01/28 01:18:31;;;;;;;34.72;14.65;;;9.00;88.80;;;;;;4899322;29;20040;-75
2021/01/28 01:20:59;;;;;;;32.40;14.68;;;9.00;88.70;;;;;;4899279;29;20036;-76
2021/01/28 01:23:25;;;;;;;40.42;15.57;;;8.90;88.70;;;;;;4916348;29;20103;-76
2021/01/28 01:25:51;;;;;;;43.75;15.13;;;8.90;88.70;;;;;;4899291;29;20040;-75
2021/01/28 01:28:17;;;;;;;31.02;14.63;;;8.90;88.80;;;;;;4899080;29;20036;-75
2021/01/28 01:30:43;;;;;;;37.13;14.73;;;8.90;88.80;;;;;;4914771;29;20055;-75
2021/01/28 01:33:09;;;;;;;35.92;14.82;;;8.90;88.80;;;;;;4915964;29;20171;-75
2021/01/28 01:35:35;;;;;;;33.42;14.07;;;8.90;88.70;;;;;;4898868;29;20044;-75
2021/01/28 01:38:02;;;;;;;34.35;14.00;;;8.90;88.70;;;;;;4899223;29;20043;-75
2021/01/28 01:40:36;;;;;;;36.50;14.73;;;8.90;88.70;;;;;;4915934;29;20128;-75
2021/01/28 01:43:03;;;;;;;33.13;14.45;;;8.90;88.70;;;;;;4916134;29;20032;-75
2021/01/28 01:45:36;;;;;;;32.05;14.10;;;8.90;88.70;;;;;;4899253;29;20036;-75
2021/01/28 01:48:14;;;;;;;31.88;14.50;;;8.90;88.80;;;;;;4899052;29;20032;-75
2021/01/28 01:50:53;;;;;;;38.70;14.65;;;8.80;88.70;;;;;;4914653;29;20040;-75
2021/01/28 01:53:34;;;;;;;35.95;14.45;;;8.90;88.90;;;;;;4916000;29;20032;-75
2021/01/28 01:56:10;;;;;;;33.70;14.20;;;8.90;88.80;;;;;;4915850;29;20036;-75
2021/01/28 01:59:02;;;;;;;30.98;13.85;;;8.90;88.70;;;;;;4915946;29;20036;-74
2021/01/28 02:01:32;;;;;;;35.42;14.40;;;9.00;88.80;;;;;;4915802;29;20484;-75
2021/01/28 02:03:58;;;;;;;32.78;13.70;;;8.90;88.70;;;;;;4900421;29;20123;-75
2021/01/28 02:06:33;;;;;;;31.45;13.48;;;9.00;88.70;;;;;;4919273;29;20527;-75
2021/01/28 02:09:01;;;;;;;39.22;14.55;;;9.00;88.70;;;;;;4919270;29;20032;-75
2021/01/28 02:11:28;;;;;;;36.35;14.13;;;9.00;88.70;;;;;;4919558;29;20062;-75
2021/01/28 02:13:56;;;;;;;43.25;15.57;;;9.10;88.70;;;;;;4902066;29;20028;-75
2021/01/28 02:16:26;;;;;;;36.90;14.15;;;9.10;88.60;;;;;;4901896;29;20032;-75
2021/01/28 02:18:55;;;;;;;36.33;15.05;;;9.10;88.50;;;;;;4902144;29;20392;-75
2021/01/28 02:21:36;;;;;;;30.35;14.00;;;9.10;88.40;;;;;;4918880;29;20032;-75
2021/01/28 02:24:26;;;;;;;36.60;14.23;;;9.00;88.40;;;;;;4918805;29;20251;-75
2021/01/28 02:26:52;;;;;;;32.88;13.48;;;9.00;88.50;;;;;;4918732;29;20032;-75
2021/01/28 02:29:21;;;;;;;30.05;13.63;;;9.00;88.50;;;;;;4917466;29;20083;-75
2021/01/28 02:31:50;;;;;;;35.95;14.60;;;9.00;88.50;;;;;;4901725;29;20036;-75
2021/01/28 02:34:17;;;;;;;35.78;13.93;;;9.10;88.60;;;;;;4918739;29;20032;-75
2021/01/28 02:36:46;;;;;;;38.05;13.88;;;9.10;88.50;;;;;;4917167;29;20115;-75
2021/01/28 02:39:15;;;;;;;30.20;13.73;;;9.10;88.50;;;;;;4918539;29;20032;-75
2021/01/28 02:41:44;;;;;;;35.17;13.90;;;9.10;88.50;;;;;;4901323;29;20488;-75
2021/01/28 02:44:10;;;;;;;31.70;14.15;;;9.20;88.40;;;;;;4918487;29;20499;-75
2021/01/28 02:46:36;;;;;;;39.25;13.38;;;9.10;88.30;;;;;;4918311;29;20111;-75
2021/01/28 02:49:02;;;;;;;38.35;14.65;;;9.20;88.30;;;;;;4901506;29;20508;-75
2021/01/28 02:51:28;;;;;;;40.90;15.23;;;9.20;88.30;;;;;;4916902;29;20052;-75
2021/01/28 02:53:54;;;;;;;48.15;15.80;;;9.20;88.30;;;;;;4918649;29;20417;-75
2021/01/28 02:56:25;;;;;;;46.75;15.30;;;9.20;88.30;;;;;;4916846;29;20036;-76
2021/01/28 02:58:52;;;;;;;43.60;15.18;;;9.10;88.20;;;;;;4918127;29;20162;-75
2021/01/28 03:01:18;;;;;;;42.55;14.60;;;9.10;88.30;;;;;;4918181;29;20028;-75
2021/01/28 03:03:44;;;;;;;38.72;15.20;;;9.10;88.30;;;;;;4918144;29;20080;-75
2021/01/28 03:06:12;;;;;;;42.95;15.25;;;9.20;88.40;;;;;;4918303;29;20052;-74
2021/01/28 03:08:38;;;;;;;43.25;14.80;;;9.10;88.30;;;;;;4900868;29;20385;-75
2021/01/28 03:11:04;;;;;;;41.05;15.07;;;9.20;88.30;;;;;;4918329;29;20054;-75
2021/01/28 03:13:30;;;;;;;38.70;15.82;;;9.20;88.30;;;;;;4917625;29;20161;-75
2021/01/28 03:15:58;;;;;;;40.92;15.18;;;9.20;88.20;;;;;;4916057;29;20039;-75
2021/01/28 03:18:25;;;;;;;43.53;15.57;;;9.20;88.20;;;;;;4917589;29;20499;-74
2021/01/28 03:20:51;;;;;;;51.30;16.20;;;9.30;88.30;;;;;;4917639;29;20028;-75
2021/01/28 03:23:17;;;;;;;42.88;17.17;;;9.20;88.20;;;;;;4916321;29;20111;-75
2021/01/28 03:25:43;;;;;;;42.33;16.10;;;9.30;88.20;;;;;;4900530;29;20084;-75
2021/01/28 03:28:09;;;;;;;42.08;15.90;;;9.30;88.20;;;;;;4916547;29;20062;-75
2021/01/28 03:30:40;;;;;;;38.22;15.75;;;9.20;88.10;;;;;;4917533;29;20124;-75
2021/01/28 03:33:08;;;;;;;48.25;16.48;;;9.20;88.10;;;;;;4900377;29;20433;-75
2021/01/28 03:35:34;;;;;;;51.60;15.98;;;9.20;88.20;;;;;;4900307;29;20031;-76
2021/01/28 03:38:00;;;;;;;56.88;16.15;;;9.20;88.20;;;;;;4900284;29;20031;-74
2021/01/28 03:40:28;;;;;;;42.80;15.98;;;9.30;88.30;;;;;;4917760;29;20020;-75
2021/01/28 03:42:54;;;;;;;55.15;16.20;;;9.30;88.30;;;;;;4917305;29;20032;-75
2021/01/28 03:45:20;;;;;;;49.45;15.82;;;9.30;88.30;;;;;;4917718;29;20028;-74
2021/01/28 03:47:45;;;;;;;57.63;16.58;;;9.30;88.30;;;;;;4917263;29;20103;-75
2021/01/28 03:50:14;;;;;;;42.33;16.25;;;9.30;88.20;;;;;;4900182;29;20456;-75
2021/01/28 03:52:40;;;;;;;29.65;12.82;;;9.30;88.20;;;;;;4917163;29;20119;-74
2021/01/28 03:55:07;;;;;;;28.80;11.95;;;9.30;88.10;;;;;;4900182;29;20127;-75
2021/01/28 03:57:32;;;;;;;23.23;10.70;;;9.20;88.00;;;;;;4900152;29;20016;-74
2021/01/28 03:59:58;;;;;;;23.13;9.95;;;9.20;88.00;;;;;;4917330;29;20104;-75
2021/01/28 04:02:23;;;;;;;22.92;9.70;;;9.20;88.00;;;;;;4917311;29;20024;-74
2021/01/28 04:04:49;;;;;;;21.92;9.13;;;9.10;87.90;;;;;;4915868;29;20052;-75
2021/01/28 04:07:15;;;;;;;21.45;8.88;;;9.10;87.80;;;;;;4915927;29;20021;-74
2021/01/28 04:09:41;;;;;;;23.00;8.70;;;9.10;87.80;;;;;;4915758;29;20104;-74
2021/01/28 04:12:06;;;;;;;18.63;8.20;;;9.10;87.80;;;;;;4915807;29;20476;-75
2021/01/28 04:14:32;;;;;;;20.52;9.27;;;9.10;87.60;;;;;;4916879;29;20031;-74
2021/01/28 04:16:58;;;;;;;21.70;8.82;;;9.00;87.70;;;;;;4915299;29;20086;-74
2021/01/28 04:19:23;;;;;;;20.77;8.32;;;8.90;87.60;;;;;;4916797;29;20028;-75
2021/01/28 04:21:49;;;;;;;15.93;8.20;;;8.80;87.60;;;;;;4916856;29;20178;-74
2021/01/28 04:24:15;;;;;;;15.30;7.80;;;8.80;87.60;;;;;;4915622;29;20440;-74
2021/01/28 04:26:42;;;;;;;14.57;6.75;;;8.70;87.70;;;;;;4914617;29;20480;-75
2021/01/28 04:29:08;;;;;;;15.70;5.85;;;8.60;87.70;;;;;;4916647;29;20032;-74
2021/01/28 04:31:34;;;;;;;12.77;6.25;;;8.60;87.80;;;;;;4916575;29;20032;-74
2021/01/28 04:34:00;;;;;;;15.15;5.85;;;8.60;87.80;;;;;;4916469;29;20060;-74
2021/01/28 04:36:26;;;;;;;11.77;5.28;;;8.60;87.80;;;;;;4915196;29;20130;-75
2021/01/28 04:38:52;;;;;;;8.77;4.63;;;8.60;87.80;;;;;;4916092;29;20163;-75
2021/01/28 04:41:22;;;;;;;10.23;5.15;;;8.60;87.70;;;;;;4912395;29;20035;-75
2021/01/28 04:43:50;;;;;;;13.50;5.28;;;8.70;87.70;;;;;;4915130;29;20024;-75
2021/01/28 04:46:41;;;;;;;9.57;4.93;;;8.70;87.60;;;;;;4916342;29;20024;-74
2021/01/28 04:49:12;;;;;;;12.45;4.78;;;8.70;87.50;;;;;;4916292;29;20451;-75
2021/01/28 04:51:41;;;;;;;12.90;4.90;;;8.70;87.40;;;;;;4916293;29;20035;-75
2021/01/28 04:54:24;;;;;;;16.95;4.85;;;8.70;87.40;;;;;;4916510;29;20034;-75
2021/01/28 04:56:50;;;;;;;15.75;4.63;;;8.70;87.40;;;;;;4914858;29;20032;-75
2021/01/28 04:59:45;;;;;;;11.20;4.70;;;8.70;87.40;;;;;;4916207;29;20056;-75
2021/01/28 05:02:21;;;;;;;;;;;8.70;87.30;;;;;;4915497;29;20068;-75
2021/01/28 05:04:54;;;;;;;10.23;3.42;;;8.70;87.30;;;;;;4915975;29;19918;-75
2021/01/28 05:07:28;;;;;;;11.20;3.83;;;8.60;87.30;;;;;;4914819;29;20020;-74
2021/01/28 05:10:26;;;;;;;11.63;4.28;;;8.60;87.20;;;;;;4916097;29;20272;-75
2021/01/28 05:12:59;;;;;;;8.85;4.22;;;8.60;87.20;;;;;;4902662;29;20469;-75
2021/01/28 05:15:34;;;;;;;11.05;4.25;;;8.50;87.10;;;;;;4915962;29;20389;-75
2021/01/28 05:18:09;;;;;;;9.38;4.13;;;8.50;87.20;;;;;;4915979;29;20020;-75
2021/01/28 05:20:35;;;;;;;11.77;4.07;;;8.50;87.20;;;;;;4916119;29;20135;-75
2021/01/28 05:23:30;;;;;;;10.43;4.40;;;8.50;87.20;;;;;;4916161;29;20016;-75
2021/01/28 05:25:57;;;;;;;6.78;3.50;;;8.50;87.20;;;;;;4914613;29;20032;-75
2021/01/28 05:28:37;;;;;;;5.55;3.75;;;8.40;87.20;;;;;;4914611;29;20079;-74
2021/01/28 05:31:04;;;;;;;6.13;3.28;;;8.40;87.10;;;;;;4914583;29;20028;-75
2021/01/28 05:33:40;;;;;;;8.18;3.08;;;8.40;87.10;;;;;;4916092;29;20034;-74
2021/01/28 05:36:22;;;;;;;6.28;2.85;;;8.40;87.10;;;;;;4915821;29;20024;-75
2021/01/28 05:38:53;;;;;;;5.82;2.88;;;8.40;87.00;;;;;;4917677;29;20036;-74
2021/01/28 05:41:41;;;;;;;6.63;2.97;;;8.40;87.10;;;;;;4918238;29;20027;-75
2021/01/28 05:44:22;;;;;;;9.45;3.08;;;8.40;87.10;;;;;;4919537;29;20476;-75
2021/01/28 05:47:07;;;;;;;4.57;2.90;;;8.30;87.10;;;;;;4918229;29;20020;-75
2021/01/28 05:49:36;;;;;;;5.97;2.88;;;8.30;87.00;;;;;;4919470;29;20060;-74
2021/01/28 05:52:13;;;;;;;5.32;2.90;;;8.40;87.10;;;;;;4902322;29;20035;-75
2021/01/28 05:54:42;;;;;;;8.18;2.92;;;8.30;87.10;;;;;;4917863;29;20056;-75
2021/01/28 05:57:16;;;;;;;15.82;2.90;;;8.30;87.00;;;;;;4919321;29;20028;-75
2021/01/28 06:00:03;;;;;;;4.35;2.33;;;8.30;86.90;;;;;;4917889;29;20476;-75
2021/01/28 06:02:49;;;;;;;8.40;2.17;;;8.30;86.80;;;;;;4919305;29;20060;-74
2021/01/28 06:05:34;;;;;;;5.68;2.10;;;8.20;86.90;;;;;;4919197;29;20044;-74
2021/01/28 06:08:28;;;;;;;7.70;2.40;;;8.20;87.00;;;;;;4919338;29;20032;-75
2021/01/28 06:11:02;;;;;;;4.38;1.98;;;8.20;87.00;;;;;;4917859;29;20387;-74
2021/01/28 06:14:29;;;;;;;8.43;1.95;;;8.20;87.00;;;;;;4917644;29;20420;-74
2021/01/28 06:17:16;;;;;;;4.53;1.48;;;8.20;86.90;;;;;;4863833;29;20033;-75
2021/01/28 06:20:19;;;;;;;5.22;1.58;;;8.20;86.90;;;;;;4863665;29;20089;-75
2021/01/28 06:22:44;;;;;;;3.28;1.48;;;8.10;86.80;;;;;;4863614;29;20037;-74
2021/01/28 06:25:36;;;;;;;1.98;1.30;;;8.10;86.90;;;;;;4879372;29;20085;-75
2021/01/28 06:28:18;;;;;;;3.33;1.20;;;8.00;86.90;;;;;;4863697;29;20049;-74
2021/01/28 06:31:00;;;;;;;1.83;1.25;;;8.00;87.00;;;;;;4879181;29;20057;-75
2021/01/28 06:33:33;;;;;;;2.83;1.60;;;8.00;87.00;;;;;;4879072;29;20045;-74
2021/01/28 06:36:16;;;;;;;4.32;1.52;;;8.00;87.10;;;;;;4879174;29;20037;-75
2021/01/28 06:39:00;;;;;;;5.80;1.98;;;8.00;86.90;;;;;;4863566;29;20033;-75
2021/01/28 06:41:31;;;;;;;1.75;1.40;;;8.00;87.00;;;;;;4878917;29;20197;-74
2021/01/28 06:44:09;;;;;;;3.95;1.92;;;8.00;87.10;;;;;;4863296;29;20092;-75
2021/01/28 06:47:11;;;;;;;3.58;1.90;;;8.00;87.00;;;;;;4871506;29;20067;-75
2021/01/28 06:49:56;;;;;;;2.33;1.65;;;8.00;87.10;;;;;;4912059;29;20044;-75
2021/01/28 06:52:24;;;;;;;3.08;1.77;;;8.00;87.00;;;;;;4919046;29;20036;-75
2021/01/28 06:55:23;;;;;;;2.75;2.00;;;8.00;87.10;;;;;;4918631;29;20036;-74
2021/01/28 06:57:59;;;;;;;4.00;2.10;;;8.00;87.00;;;;;;4918564;29;20024;-74
2021/01/28 07:00:40;;;;;;;5.50;2.10;;;7.90;86.90;;;;;;4917126;29;20020;-75
2021/01/28 07:03:16;;;;;;;4.63;1.88;;;7.90;87.00;;;;;;4918827;29;20449;-75
2021/01/28 07:05:45;;;;;;;3.22;1.77;;;7.80;87.00;;;;;;4918367;29;20385;-77
2021/01/28 07:08:21;;;;;;;4.97;2.30;;;7.80;87.10;;;;;;4918759;29;20031;-75
2021/01/28 07:10:47;;;;;;;4.07;2.28;;;7.80;87.20;;;;;;4918461;29;20035;-76
2021/01/28 07:13:20;;;;;;;7.95;2.75;;;7.80;87.20;;;;;;4918377;29;20020;-77
2021/01/28 07:16:02;;;;;;;5.72;2.40;;;7.80;87.20;;;;;;4917930;29;20025;-76
2021/01/28 07:18:48;;;;;;;4.75;2.70;;;7.90;87.30;;;;;;4918273;29;20112;-76
2021/01/28 07:21:32;;;;;;;3.35;2.30;;;7.80;87.20;;;;;;4916616;29;20030;-75
2021/01/28 07:24:11;;;;;;;4.32;2.92;;;7.80;87.20;;;;;;4916542;29;20024;-75
2021/01/28 07:27:07;;;;;;;8.80;2.72;;;7.80;87.30;;;;;;4916581;29;20024;-75
2021/01/28 07:29:33;;;;;;;4.38;2.30;;;7.80;87.30;;;;;;4900561;29;20043;-77
2021/01/28 07:32:04;;;;;;;6.63;2.85;;;7.80;87.40;;;;;;4917824;29;20032;-77
2021/01/28 07:34:30;;;;;;;7.43;2.70;;;7.80;87.40;;;;;;4916410;29;20342;-75
2021/01/28 07:37:18;;;;;;;4.13;2.17;;;7.80;87.50;;;;;;4916444;29;20039;-77
2021/01/28 07:39:45;;;;;;;3.83;2.40;;;7.70;87.40;;;;;;4900744;29;20497;-77
2021/01/28 07:42:28;;;;;;;4.53;2.20;;;7.80;87.50;;;;;;4916568;29;20035;-77
2021/01/28 07:44:57;;;;;;;6.47;2.50;;;7.80;87.50;;;;;;4917686;29;20056;-77
2021/01/28 07:47:31;;;;;;;3.47;2.10;;;7.70;87.50;;;;;;4916147;29;20423;-77
2021/01/28 07:50:22;;;;;;;4.30;2.20;;;7.80;87.40;;;;;;4917922;29;20032;-78
2021/01/28 07:52:47;;;;;;;3.90;2.45;;;7.80;87.40;;;;;;4917264;29;20028;-75
2021/01/28 07:55:44;;;;;;;4.50;2.38;;;7.70;87.40;;;;;;4916001;29;20424;-76
2021/01/28 07:58:36;;;;;;;4.57;2.33;;;7.70;87.50;;;;;;4916170;29;20107;-77
2021/01/28 08:01:13;;;;;;;4.88;2.53;;;7.70;87.50;;;;;;4915234;29;20397;-78
2021/01/28 08:04:05;;;;;;;4.03;2.05;;;7.70;87.50;;;;;;4917220;29;20329;-77
2021/01/28 08:06:38;;;;;;;2.88;1.80;;;7.70;87.50;;;;;;4917086;29;20063;-77
2021/01/28 08:09:14;;;;;;;5.32;2.20;;;7.70;87.50;;;;;;4915873;29;20017;-77
2021/01/28 08:11:47;;;;;;;3.28;2.25;;;7.70;87.60;;;;;;4915912;29;20024;-78
2021/01/28 08:14:19;;;;;;;4.28;1.95;;;7.70;87.60;;;;;;4917668;29;20354;-76
2021/01/28 08:20:19;;;;;;;2.63;1.88;;;7.70;87.60;;;;;;4917807;29;20473;-78
2021/01/28 08:23:00;;;;;;;2.72;2.00;;;7.60;87.50;;;;;;4917736;29;20058;-78
2021/01/28 08:25:29;;;;;;;4.38;2.20;;;7.60;87.60;;;;;;4916148;29;20025;-76
2021/01/28 08:27:55;;;;;;;2.65;2.30;;;7.60;87.60;;;;;;4916188;29;20028;-75
2021/01/28 08:30:27;;;;;;;3.05;2.30;;;7.60;87.70;;;;;;4915986;29;20035;-75
2021/01/28 08:36:32;;;;;;;2.85;2.30;;;7.70;87.60;;;;;;4917550;29;20150;-75
2021/01/28 08:42:48;;;;;;;5.80;2.45;;;7.70;87.60;;;;;;4917491;29;20067;-75
2021/01/28 08:45:17;;;;;;;;;;;7.60;87.70;;;;;;4916095;29;20024;-76
2021/01/28 08:47:58;;;;;;;3.00;2.05;;;7.70;87.70;;;;;;4915883;29;19914;-75
2021/01/28 08:50:26;;;;;;;3.30;2.28;;;7.60;87.50;;;;;;4917283;29;20036;-75
2021/01/28 08:53:08;;;;;;;5.82;2.20;;;7.60;87.60;;;;;;4915682;29;20055;-75
2021/01/28 08:55:37;;;;;;;4.03;2.40;;;7.60;87.70;;;;;;4915793;29;20096;-75
2021/01/28 08:58:41;;;;;;;2.65;2.00;;;7.70;87.80;;;;;;4915877;29;20024;-75
2021/01/28 09:01:14;;;;;;;2.92;2.22;;;7.70;87.70;;;;;;4879939;29;20071;-76
2021/01/28 09:04:25;;;;;;;5.60;2.58;;;7.60;87.60;;;;;;4916034;29;20024;-76
2021/01/28 09:06:54;;;;;;;2.67;2.25;;;7.70;87.80;;;;;;4879799;29;20488;-74
2021/01/28 09:12:42;;;;;;;3.03;2.45;;;7.70;87.80;;;;;;4899999;29;20150;-74
2021/01/28 09:15:22;;;;;;;3.72;2.50;;;7.70;87.70;;;;;;4900598;29;20515;-76
2021/01/28 09:17:48;;;;;;;3.20;2.30;;;7.70;87.70;;;;;;4900510;29;20020;-76
2021/01/28 09:24:13;;;;;;;3.35;2.38;;;7.70;87.70;;;;;;4901852;29;20035;-75
2021/01/28 09:26:40;;;;;;;3.30;2.50;;;7.70;87.70;;;;;;4901723;29;20057;-75
2021/01/28 09:29:31;;;;;;;3.60;2.50;;;7.70;87.70;;;;;;4900444;29;20031;-75
2021/01/28 09:32:09;;;;;;;3.60;2.97;;;7.70;87.70;;;;;;4900385;29;20548;-74
2021/01/28 09:34:38;;;;;;;3.83;3.20;;;7.80;87.80;;;;;;4902065;29;20500;-75
2021/01/28 09:37:16;;;;;;;17.38;6.40;;;7.80;87.80;;;;;;4900426;29;20110;-75
2021/01/28 09:39:44;;;;;;;6.22;4.70;;;7.80;87.70;;;;;;4901420;29;20111;-77
2021/01/28 09:45:31;;;;;;;11.80;7.85;;;7.70;87.80;;;;;;4901564;29;20548;-75
2021/01/28 09:48:02;;;;;;;6.78;4.68;;;7.70;87.70;;;;;;4901050;29;20036;-75
2021/01/28 09:50:28;;;;;;;6.03;4.40;;;7.80;87.90;;;;;;4899926;29;20396;-75
2021/01/28 09:52:53;;;;;;;7.30;5.28;;;7.80;88.00;;;;;;4899758;29;20036;-76
2021/01/28 09:55:22;;;;;;;5.80;5.07;;;7.90;88.00;;;;;;4899291;29;20473;-76
2021/01/28 09:57:49;;;;;;;5.93;4.63;;;7.90;88.10;;;;;;4900690;29;20543;-75
2021/01/28 10:00:18;;;;;;;5.75;4.60;;;8.00;88.20;;;;;;4900862;29;20043;-74
2021/01/28 10:02:51;;;;;;;6.88;5.00;;;8.00;88.10;;;;;;4899389;29;20045;-75
2021/01/28 10:05:20;;;;;;;5.60;4.43;;;8.10;88.80;;;;;;4899556;29;20040;-75
2021/01/28 10:07:47;;;;;;;5.80;4.50;;;8.20;88.10;;;;;;4900866;29;20029;-73
2021/01/28 10:10:17;;;;;;;7.32;5.65;;;8.20;88.00;;;;;;4899682;29;20488;-74
2021/01/28 10:12:43;;;;;;;6.00;5.20;;;8.20;88.10;;;;;;4899511;29;20033;-75
2021/01/28 10:15:13;;;;;;;24.85;5.50;;;8.20;88.00;;;;;;4900664;29;20100;-74
2021/01/28 10:17:39;;;;;;;6.22;5.15;;;8.20;88.10;;;;;;4899792;29;20484;-75
2021/01/28 10:20:06;;;;;;;6.50;5.10;;;8.20;88.00;;;;;;4899312;29;20028;-74
2021/01/28 10:22:38;;;;;;;6.63;5.45;;;8.20;88.00;;;;;;4900612;29;20025;-74
2021/01/28 10:25:08;;;;;;;7.20;5.55;;;8.20;88.00;;;;;;4914066;29;20111;-75
2021/01/28 10:27:40;;;;;;;7.80;5.50;;;8.20;87.90;;;;;;4898932;29;20033;-75
2021/01/28 10:30:09;;;;;;;5.65;4.85;;;8.20;87.90;;;;;;4899255;29;20024;-75
2021/01/28 10:32:35;;;;;;;7.28;5.53;;;8.20;88.00;;;;;;4898796;29;20036;-75
2021/01/28 10:35:01;;;;;;;7.75;5.18;;;8.20;88.00;;;;;;4899531;29;20028;-74
2021/01/28 10:40:50;;;;;;;6.10;5.35;;;8.20;88.00;;;;;;4900649;29;20027;-75
2021/01/28 10:43:16;;;;;;;6.13;5.25;;;8.20;87.80;;;;;;4899202;29;20052;-75
2021/01/28 10:45:42;;;;;;;7.13;5.53;;;8.20;87.90;;;;;;4899417;29;20430;-76
2021/01/28 10:48:08;;;;;;;7.00;5.43;;;8.20;88.00;;;;;;4900116;29;20028;-75
2021/01/28 10:50:35;;;;;;;7.47;5.63;;;8.20;87.80;;;;;;4899471;29;20053;-76
2021/01/28 10:53:01;;;;;;;6.55;5.18;;;8.20;87.80;;;;;;4899570;29;20052;-74
2021/01/28 10:55:29;;;;;;;6.05;5.05;;;8.20;87.90;;;;;;4899641;29;20072;-73
2021/01/28 10:57:55;;;;;;;6.45;5.30;;;8.20;87.80;;;;;;4899471;29;20016;-74
2021/01/28 11:00:23;;;;;;;7.25;5.55;;;8.20;87.70;;;;;;4899725;29;20453;-74
2021/01/28 11:02:49;;;;;;;6.47;5.40;;;8.20;87.70;;;;;;4898214;29;20354;-73
2021/01/28 11:05:19;;;;;;;8.55;6.10;;;8.10;87.80;;;;;;4906996;29;20076;-74
2021/01/28 11:07:45;;;;;;;9.02;5.60;;;8.10;87.90;;;;;;4901226;29;20080;-74
2021/01/28 11:10:12;;;;;;;7.03;5.82;;;8.10;87.80;;;;;;4917026;29;20032;-74
2021/01/28 11:12:37;;;;;;;6.00;5.18;;;8.10;87.90;;;;;;4918839;29;20464;-74
2021/01/28 11:15:05;;;;;;;6.80;5.55;;;8.10;87.90;;;;;;4917524;29;20051;-75
2021/01/28 11:17:30;;;;;;;6.60;5.05;;;8.10;87.80;;;;;;4916966;29;20024;-74
2021/01/28 11:19:56;;;;;;;6.72;5.07;;;8.10;87.80;;;;;;4917497;29;20028;-75
2021/01/28 11:22:22;;;;;;;6.70;5.38;;;8.00;87.70;;;;;;4918694;29;20039;-75
2021/01/28 11:24:47;;;;;;;5.75;4.82;;;8.00;87.80;;;;;;4917411;29;20020;-74
2021/01/28 11:27:13;;;;;;;5.93;4.97;;;8.00;87.80;;;;;;4918860;29;20043;-74
2021/01/28 11:29:41;;;;;;;6.28;5.00;;;8.00;87.80;;;;;;4917605;29;20020;-74
2021/01/28 11:32:07;;;;;;;6.22;5.15;;;7.90;87.80;;;;;;4917036;29;20115;-74
2021/01/28 11:34:33;;;;;;;5.93;4.68;;;7.90;87.90;;;;;;4918524;29;20051;-73
2021/01/28 11:36:58;;;;;;;5.57;4.40;;;7.90;88.00;;;;;;4917564;29;20432;-73
2021/01/28 11:39:24;;;;;;;4.88;4.22;;;7.80;87.90;;;;;;4917891;29;20021;-74
2021/01/28 11:41:50;;;;;;;5.00;4.18;;;7.80;88.00;;;;;;4916527;29;20143;-74
2021/01/28 11:44:16;;;;;;;15.05;9.57;;;7.80;88.00;;;;;;4916515;29;20040;-74
2021/01/28 11:46:41;;;;;;;12.05;8.00;;;7.90;88.10;;;;;;4916622;29;20107;-74
2021/01/28 11:49:07;;;;;;;10.43;6.70;;;7.90;88.10;;;;;;4917828;29;20425;-74
2021/01/28 11:51:33;;;;;;;7.65;4.90;;;7.90;88.00;;;;;;4916236;29;20024;-74
2021/01/28 11:53:58;;;;;;;7.28;4.78;;;8.00;88.00;;;;;;4916310;29;20035;-74
2021/01/28 11:56:24;;;;;;;5.40;4.30;;;8.00;88.00;;;;;;4917500;29;20028;-74
2021/01/28 11:58:50;;;;;;;4.60;3.90;;;8.00;87.90;;;;;;4900509;29;20436;-74
2021/01/28 12:01:15;;;;;;;4.88;4.10;;;8.10;87.90;;;;;;4916194;29;20051;-74
2021/01/28 12:03:41;;;;;;;4.47;3.90;;;8.10;87.80;;;;;;4917616;29;20047;-74
2021/01/28 12:06:07;;;;;;;5.25;4.32;;;8.10;87.60;;;;;;4900015;29;20398;-74
2021/01/28 12:08:32;;;;;;;5.10;4.25;;;8.20;87.80;;;;;;4917414;29;20035;-74
2021/01/28 12:10:58;;;;;;;4.35;3.88;;;8.20;87.70;;;;;;4917461;29;20028;-74
2021/01/28 12:13:23;;;;;;;4.53;3.85;;;8.20;87.70;;;;;;4917291;29;20540;-74
2021/01/28 12:15:49;;;;;;;4.63;4.15;;;8.30;87.60;;;;;;4916244;29;20040;-74
2021/01/28 12:18:15;;;;;;;4.82;4.32;;;8.20;87.40;;;;;;4915902;29;20071;-73
2021/01/28 12:20:40;;;;;;;4.68;3.97;;;8.20;87.50;;;;;;4917392;29;20032;-73
2021/01/28 12:23:06;;;;;;;5.07;4.03;;;8.20;87.40;;;;;;4915532;29;20028;-74
2021/01/28 12:25:32;;;;;;;4.57;4.00;;;8.20;87.50;;;;;;4915542;29;20028;-73
2021/01/28 12:27:57;;;;;;;5.25;4.25;;;8.20;87.50;;;;;;4899749;29;20466;-74
2021/01/28 12:30:25;;;;;;;5.13;4.30;;;8.20;87.50;;;;;;4916945;29;20032;-73
2021/01/28 12:32:51;;;;;;;4.35;3.95;;;8.20;87.50;;;;;;4916797;29;20035;-73
2021/01/28 12:35:18;;;;;;;5.28;4.00;;;8.20;87.50;;;;;;4899672;29;20046;-74
2021/01/28 12:37:44;;;;;;;4.28;3.88;;;8.20;87.50;;;;;;4916755;29;20024;-74
2021/01/28 12:40:12;;;;;;;4.20;3.80;;;8.20;87.50;;;;;;4916787;29;20507;-74
2021/01/28 12:42:38;;;;;;;4.45;3.95;;;8.20;87.60;;;;;;4915611;29;20028;-74
2021/01/28 12:45:05;;;;;;;3.88;3.42;;;8.20;87.60;;;;;;4915421;29;20079;-74
2021/01/28 12:47:31;;;;;;;3.83;3.50;;;8.20;87.60;;;;;;4914997;29;20031;-73
2021/01/28 12:49:57;;;;;;;4.18;3.63;;;8.10;87.40;;;;;;4916908;29;20032;-74
2021/01/28 12:52:23;;;;;;;3.35;3.05;;;8.10;87.40;;;;;;4916804;29;20024;-74
2021/01/28 12:54:49;;;;;;;4.07;3.42;;;8.10;87.40;;;;;;4916892;29;20016;-74
2021/01/28 12:57:15;;;;;;;3.58;2.92;;;8.10;87.50;;;;;;4915319;29;20054;-73
2021/01/28 12:59:41;;;;;;;2.90;2.70;;;8.10;87.60;;;;;;4915146;29;20103;-73
2021/01/28 13:02:07;;;;;;;16.45;10.88;;;8.10;87.60;;;;;;4916568;29;20024;-74
2021/01/28 13:04:32;;;;;;;13.70;8.52;;;8.10;87.50;;;;;;4916226;29;20072;-74
2021/01/28 13:06:58;;;;;;;7.95;5.53;;;8.10;87.60;;;;;;4916368;29;20028;-75
2021/01/28 13:09:24;;;;;;;7.07;4.55;;;8.10;87.60;;;;;;4916392;29;20324;-73
2021/01/28 13:11:49;;;;;;;4.45;3.70;;;8.10;87.60;;;;;;4914950;29;20052;-74
2021/01/28 13:14:15;;;;;;;3.33;2.90;;;8.10;87.50;;;;;;4915009;29;20028;-74
2021/01/28 13:16:41;;;;;;;2.72;2.40;;;8.10;87.50;;;;;;4916135;29;20039;-74
2021/01/28 13:19:07;;;;;;;2.88;2.60;;;8.10;87.60;;;;;;4916217;29;20075;-74
2021/01/28 13:21:33;;;;;;;3.15;2.53;;;8.20;87.60;;;;;;4915079;29;20040;-73
2021/01/28 13:23:59;;;;;;;2.63;2.30;;;8.20;87.60;;;;;;4915007;29;20012;-75
2021/01/28 13:26:24;;;;;;;2.65;2.42;;;8.30;87.40;;;;;;4915117;29;20032;-75
2021/01/28 13:28:50;;;;;;;2.83;2.40;;;8.30;87.30;;;;;;4914965;29;20024;-73
2021/01/28 13:31:16;;;;;;;2.80;2.42;;;8.30;87.20;;;;;;4916421;29;20020;-74
2021/01/28 13:33:41;;;;;;;2.50;2.30;;;8.20;87.20;;;;;;4915081;29;20036;-74
2021/01/28 13:36:08;;;;;;;2.95;2.60;;;8.30;87.20;;;;;;4916046;29;20111;-74